Jugendreisen

Hotel Caribbean Bay

Direkt zu den Terminen & Preisen
Super Frühbucherrabatt

Infos
Strand: 200 m
Disco: 1800 m
Shopping: 400 m
Gepäckraum
Dusche
W-LAN gg. Gebühr
Safe gg. Gebühr
Pool
Gratis Klimaanlage
Balkon
SAT-TV
All inclusive
 
Hotelbilder
Die Lage
Am Ortseingang Arenals liegt das 3 Sterne All inclusive Hotel Caribbean Bay. Unser Newcomer wurde 2013 komplett renoviert und besticht unter anderem durch seine perfekte Strandlage und dem guten Preis-Leistungsverhältnis. Nur ca. 200m trennen euch vom azurblauen Mittelmeer. Urlaubsfeeling pur!
Eure Zimmer
Die modernen und freundlichen Zimmer des Caribbean Bay sind alle mit Dusche/WC und Föhn sowie SAT-TV ausgestattet. Die Klimaanlage sorgt für eine angenehme Raumtemperatur. Auf dem Balkon / Terrasse könnt ihr entspannt mit euren Freunden zusammen sitzen.

Damit eure Wertsachen sicher verstaut sind, könnt ihr an der Rezeption einen Safe mieten.
Ausstattung
Neben den komfortablen und modernen 224 Zimmern ist das Highlight des Hotels in luftiger Höhe zu finden. Einer von zwei Hotelpools befindet sich auf der oberen Hotelterrasse und bietet euch einen exklusiven Blick auf die Dächer von Palma und den Strand der Playa de Palma. (Sonnenliegen und Schirme inklusive!)
Eure Verpflegung
Hier seid ihr bestens versorgt! Im Reisepreis enthalten ist das umfangreiche Buffet zum Frühstück, Mittag-/ und Abendessen im hoteleigenen Restaurant.
Für den Hunger zwischendurch gibt es Snacks bis 18 Uhr und an der Pool Bar und Lobby Bar neben dem Eingangsbereich könnt ihr von 10:30 bis 23:00 Uhr den Getränkeservice in vollen Zügen auskosten.
Abflughäfen
Abflughäfen
Basel
Berlin-Schönefeld
Berlin-Tegel
Bremen
Dortmund
Dresden
Düsseldorf
Erfurt
Frankfurt/Main
Hamburg
Hannover
Innsbruck
Karlsruhe/Baden-Baden
Köln/Bonn
Leipzig/Halle
Luxemburg
München
Münster/Osnabrück
Nürnberg
Paderborn/Lippstadt
Salzburg
Stuttgart
Wien
Zürich
Termine & Preise
Reiseart:
Flug
Tage bitte wählen:
Termin Preis
Preise für 2022
Juni
01.06 - 05.06.2022 519  489 € nur noch wenige Plätze
02.06 - 06.06.2022 519  489 € nur noch wenige Plätze
03.06 - 07.06.2022 519  489 € nur noch wenige Plätze
05.06 - 09.06.2022 519  489 € nur noch wenige Plätze
06.06 - 10.06.2022 519  489 € nur noch wenige Plätze
07.06 - 11.06.2022 519  489 € Expressangebot holen
08.06 - 12.06.2022 529  499 € Expressangebot holen
09.06 - 13.06.2022 529  499 € Expressangebot holen
10.06 - 14.06.2022 539  509 € Expressangebot holen
12.06 - 16.06.2022 539  509 € Expressangebot holen
13.06 - 17.06.2022 539  509 € Expressangebot holen
14.06 - 18.06.2022 539  509 € Expressangebot holen
15.06 - 19.06.2022 539  509 € Expressangebot holen
16.06 - 20.06.2022 539  509 € Expressangebot holen
17.06 - 21.06.2022 539  509 € Expressangebot holen
19.06 - 23.06.2022 549  519 € Expressangebot holen
20.06 - 24.06.2022 569  529 € Expressangebot holen
21.06 - 25.06.2022 579  539 € Expressangebot holen
22.06 - 26.06.2022 599  559 € Expressangebot holen
23.06 - 27.06.2022 599  559 € Expressangebot holen
24.06 - 28.06.2022 599  559 € Expressangebot holen
26.06 - 30.06.2022 599  559 € Expressangebot holen
27.06 - 01.07.2022 599  559 € Expressangebot holen
28.06 - 02.07.2022 599  559 € Expressangebot holen
29.06 - 03.07.2022 599  559 € Expressangebot holen
30.06 - 04.07.2022 599  559 € Expressangebot holen
Juli
01.07 - 05.07.2022 599  559 € Expressangebot holen
03.07 - 07.07.2022 599  559 € Expressangebot holen
04.07 - 08.07.2022 599  559 € Expressangebot holen
05.07 - 09.07.2022 599  559 € Expressangebot holen
06.07 - 10.07.2022 599  559 € Expressangebot holen
07.07 - 11.07.2022 599  559 € Expressangebot holen
08.07 - 12.07.2022 599  559 € Expressangebot holen
10.07 - 14.07.2022 599  559 € Expressangebot holen
11.07 - 15.07.2022 599  559 € Expressangebot holen
12.07 - 16.07.2022 599  559 € Expressangebot holen
13.07 - 17.07.2022 609  569 € Expressangebot holen
14.07 - 18.07.2022 619  579 € Expressangebot holen
15.07 - 19.07.2022 639  589 € Expressangebot holen
17.07 - 21.07.2022 649  599 € Expressangebot holen
18.07 - 22.07.2022 649  599 € Expressangebot holen
19.07 - 23.07.2022 649  599 € Expressangebot holen
20.07 - 24.07.2022 649  599 € Expressangebot holen
21.07 - 25.07.2022 649  599 € Expressangebot holen
22.07 - 26.07.2022 649  599 € Expressangebot holen
24.07 - 28.07.2022 649  599 € Expressangebot holen
25.07 - 29.07.2022 649  599 € Expressangebot holen
26.07 - 30.07.2022 649  599 € Expressangebot holen
27.07 - 31.07.2022 649  599 € Expressangebot holen
28.07 - 01.08.2022 649  599 € Expressangebot holen
29.07 - 02.08.2022 649  599 € Expressangebot holen
31.07 - 04.08.2022 649  599 € Expressangebot holen
August
01.08 - 05.08.2022 649  599 € Expressangebot holen
02.08 - 06.08.2022 649  599 € Expressangebot holen
03.08 - 07.08.2022 649  599 € Expressangebot holen
04.08 - 08.08.2022 649  599 € Expressangebot holen
05.08 - 09.08.2022 649  599 € Expressangebot holen
07.08 - 11.08.2022 649  599 € Expressangebot holen
08.08 - 12.08.2022 649  599 € Expressangebot holen
09.08 - 13.08.2022 649  599 € Expressangebot holen
10.08 - 14.08.2022 649  599 € Expressangebot holen
11.08 - 15.08.2022 649  599 € Expressangebot holen
12.08 - 16.08.2022 649  599 € Expressangebot holen
14.08 - 18.08.2022 649  599 € Expressangebot holen
15.08 - 19.08.2022 649  599 € Expressangebot holen
16.08 - 20.08.2022 649  599 € Expressangebot holen
17.08 - 21.08.2022 649  599 € Expressangebot holen
18.08 - 22.08.2022 649  599 € Expressangebot holen
19.08 - 23.08.2022 649  599 € Expressangebot holen
21.08 - 25.08.2022 649  599 € Expressangebot holen
22.08 - 26.08.2022 649  599 € Expressangebot holen
23.08 - 27.08.2022 649  599 € Expressangebot holen
24.08 - 28.08.2022 649  599 € Expressangebot holen
25.08 - 29.08.2022 629  589 € Expressangebot holen
26.08 - 30.08.2022 619  569 € Expressangebot holen
28.08 - 01.09.2022 579  539 € Expressangebot holen
29.08 - 02.09.2022 579  539 € Expressangebot holen
30.08 - 03.09.2022 579  539 € Expressangebot holen
31.08 - 04.09.2022 579  539 € Expressangebot holen
September
01.09 - 05.09.2022 579  539 € Expressangebot holen
02.09 - 06.09.2022 579  539 € Expressangebot holen
04.09 - 08.09.2022 579  539 € Expressangebot holen
05.09 - 09.09.2022 579  539 € Expressangebot holen
06.09 - 10.09.2022 579  539 € Expressangebot holen
07.09 - 11.09.2022 579  539 € Expressangebot holen
Alle Flugpreise exklusive Transfer, außer bei Goldstrand und Sonnenstrand.
Termin Preis
Preise für 2022
Juni
01.06 - 06.06.2022 559  529 € nur noch wenige Plätze
02.06 - 07.06.2022 559  529 € nur noch wenige Plätze
03.06 - 08.06.2022 559  529 € nur noch wenige Plätze
05.06 - 10.06.2022 559  529 € nur noch wenige Plätze
06.06 - 11.06.2022 569  529 € nur noch wenige Plätze
07.06 - 12.06.2022 579  539 € Expressangebot holen
08.06 - 13.06.2022 579  539 € Expressangebot holen
09.06 - 14.06.2022 589  549 € Expressangebot holen
10.06 - 15.06.2022 589  549 € Expressangebot holen
12.06 - 17.06.2022 589  549 € Expressangebot holen
13.06 - 18.06.2022 589  549 € Expressangebot holen
14.06 - 19.06.2022 589  549 € Expressangebot holen
15.06 - 20.06.2022 589  549 € Expressangebot holen
16.06 - 21.06.2022 589  549 € Expressangebot holen
17.06 - 22.06.2022 589  549 € Expressangebot holen
19.06 - 24.06.2022 619  579 € Expressangebot holen
20.06 - 25.06.2022 639  589 € Expressangebot holen
21.06 - 26.06.2022 649  599 € Expressangebot holen
22.06 - 27.06.2022 669  609 € Expressangebot holen
23.06 - 28.06.2022 669  609 € Expressangebot holen
24.06 - 29.06.2022 669  609 € Expressangebot holen
26.06 - 01.07.2022 669  609 € Expressangebot holen
27.06 - 02.07.2022 669  609 € Expressangebot holen
28.06 - 03.07.2022 669  609 € Expressangebot holen
29.06 - 04.07.2022 669  609 € Expressangebot holen
30.06 - 05.07.2022 669  609 € Expressangebot holen
Juli
01.07 - 06.07.2022 669  609 € Expressangebot holen
03.07 - 08.07.2022 669  609 € Expressangebot holen
04.07 - 09.07.2022 669  609 € Expressangebot holen
05.07 - 10.07.2022 669  609 € Expressangebot holen
06.07 - 11.07.2022 669  609 € Expressangebot holen
07.07 - 12.07.2022 669  609 € Expressangebot holen
08.07 - 13.07.2022 669  609 € Expressangebot holen
10.07 - 15.07.2022 669  609 € Expressangebot holen
11.07 - 16.07.2022 669  609 € Expressangebot holen
12.07 - 17.07.2022 679  629 € Expressangebot holen
13.07 - 18.07.2022 689  639 € Expressangebot holen
14.07 - 19.07.2022 709  649 € Expressangebot holen
15.07 - 20.07.2022 719  659 € Expressangebot holen
17.07 - 22.07.2022 729  669 € Expressangebot holen
18.07 - 23.07.2022 729  669 € Expressangebot holen
19.07 - 24.07.2022 729  669 € Expressangebot holen
20.07 - 25.07.2022 729  669 € Expressangebot holen
21.07 - 26.07.2022 729  669 € Expressangebot holen
22.07 - 27.07.2022 729  669 € Expressangebot holen
24.07 - 29.07.2022 729  669 € Expressangebot holen
25.07 - 30.07.2022 729  669 € Expressangebot holen
26.07 - 31.07.2022 729  669 € Expressangebot holen
27.07 - 01.08.2022 729  669 € Expressangebot holen
28.07 - 02.08.2022 729  669 € Expressangebot holen
29.07 - 03.08.2022 729  669 € Expressangebot holen
31.07 - 05.08.2022 729  669 € Expressangebot holen
August
01.08 - 06.08.2022 729  669 € Expressangebot holen
02.08 - 07.08.2022 729  669 € Expressangebot holen
03.08 - 08.08.2022 729  669 € Expressangebot holen
04.08 - 09.08.2022 729  669 € Expressangebot holen
05.08 - 10.08.2022 729  669 € Expressangebot holen
07.08 - 12.08.2022 729  669 € Expressangebot holen
08.08 - 13.08.2022 729  669 € Expressangebot holen
09.08 - 14.08.2022 729  669 € Expressangebot holen
10.08 - 15.08.2022 729  669 € Expressangebot holen
11.08 - 16.08.2022 729  669 € Expressangebot holen
12.08 - 17.08.2022 729  669 € Expressangebot holen
14.08 - 19.08.2022 729  669 € Expressangebot holen
15.08 - 20.08.2022 729  669 € Expressangebot holen
16.08 - 21.08.2022 729  669 € Expressangebot holen
17.08 - 22.08.2022 729  669 € Expressangebot holen
18.08 - 23.08.2022 729  669 € Expressangebot holen
19.08 - 24.08.2022 729  669 € Expressangebot holen
21.08 - 26.08.2022 729  669 € Expressangebot holen
22.08 - 27.08.2022 729  669 € Expressangebot holen
23.08 - 28.08.2022 729  669 € Expressangebot holen
24.08 - 29.08.2022 709  659 € Expressangebot holen
25.08 - 30.08.2022 699  639 € Expressangebot holen
26.08 - 31.08.2022 679  629 € Expressangebot holen
28.08 - 02.09.2022 649  599 € Expressangebot holen
29.08 - 03.09.2022 649  599 € Expressangebot holen
30.08 - 04.09.2022 649  599 € Expressangebot holen
31.08 - 05.09.2022 649  599 € Expressangebot holen
September
01.09 - 06.09.2022 649  599 € Expressangebot holen
02.09 - 07.09.2022 649  599 € Expressangebot holen
04.09 - 09.09.2022 649  599 € Expressangebot holen
05.09 - 10.09.2022 649  599 € Expressangebot holen
06.09 - 11.09.2022 649  599 € Expressangebot holen
Alle Flugpreise exklusive Transfer, außer bei Goldstrand und Sonnenstrand.
Termin Preis
Preise für 2022
Juni
01.06 - 08.06.2022 659  609 € nur noch wenige Plätze
02.06 - 09.06.2022 659  609 € nur noch wenige Plätze
03.06 - 10.06.2022 659  609 € nur noch wenige Plätze
05.06 - 12.06.2022 669  619 € nur noch wenige Plätze
06.06 - 13.06.2022 679  619 € nur noch wenige Plätze
07.06 - 14.06.2022 679  629 € Expressangebot holen
08.06 - 15.06.2022 689  629 € Expressangebot holen
09.06 - 16.06.2022 699  639 € Expressangebot holen
10.06 - 17.06.2022 699  649 € Expressangebot holen
12.06 - 19.06.2022 699  649 € Expressangebot holen
13.06 - 20.06.2022 699  649 € Expressangebot holen
14.06 - 21.06.2022 699  649 € Expressangebot holen
15.06 - 22.06.2022 699  649 € Expressangebot holen
16.06 - 23.06.2022 719  659 € Expressangebot holen
17.06 - 24.06.2022 729  669 € Expressangebot holen
19.06 - 26.06.2022 759  689 € Expressangebot holen
20.06 - 27.06.2022 769  709 € Expressangebot holen
21.06 - 28.06.2022 789  719 € Expressangebot holen
22.06 - 29.06.2022 799  729 € Expressangebot holen
23.06 - 30.06.2022 799  729 € Expressangebot holen
24.06 - 01.07.2022 799  729 € Expressangebot holen
26.06 - 03.07.2022 799  729 € Expressangebot holen
27.06 - 04.07.2022 799  729 € Expressangebot holen
28.06 - 05.07.2022 799  729 € Expressangebot holen
29.06 - 06.07.2022 799  729 € Expressangebot holen
30.06 - 07.07.2022 799  729 € Expressangebot holen
Juli
01.07 - 08.07.2022 799  729 € Expressangebot holen
03.07 - 10.07.2022 799  729 € Expressangebot holen
04.07 - 11.07.2022 799  729 € Expressangebot holen
05.07 - 12.07.2022 799  729 € Expressangebot holen
06.07 - 13.07.2022 799  729 € Expressangebot holen
07.07 - 14.07.2022 799  729 € Expressangebot holen
08.07 - 15.07.2022 799  729 € Expressangebot holen
10.07 - 17.07.2022 819  739 € Expressangebot holen
11.07 - 18.07.2022 829  749 € Expressangebot holen
12.07 - 19.07.2022 839  759 € Expressangebot holen
13.07 - 20.07.2022 849  779 € Expressangebot holen
14.07 - 21.07.2022 869  789 € Expressangebot holen
15.07 - 22.07.2022 879  799 € Expressangebot holen
17.07 - 24.07.2022 889  809 € Expressangebot holen
18.07 - 25.07.2022 889  809 € Expressangebot holen
19.07 - 26.07.2022 889  809 € Expressangebot holen
20.07 - 27.07.2022 889  809 € Expressangebot holen
21.07 - 28.07.2022 889  809 € Expressangebot holen
22.07 - 29.07.2022 889  809 € Expressangebot holen
24.07 - 31.07.2022 889  809 € Expressangebot holen
25.07 - 01.08.2022 889  809 € Expressangebot holen
26.07 - 02.08.2022 889  809 € Expressangebot holen
27.07 - 03.08.2022 889  809 € Expressangebot holen
28.07 - 04.08.2022 889  809 € Expressangebot holen
29.07 - 05.08.2022 889  809 € Expressangebot holen
31.07 - 07.08.2022 889  809 € Expressangebot holen
August
01.08 - 08.08.2022 889  809 € Expressangebot holen
02.08 - 09.08.2022 889  809 € Expressangebot holen
03.08 - 10.08.2022 889  809 € Expressangebot holen
04.08 - 11.08.2022 889  809 € Expressangebot holen
05.08 - 12.08.2022 889  809 € Expressangebot holen
07.08 - 14.08.2022 889  809 € Expressangebot holen
08.08 - 15.08.2022 889  809 € Expressangebot holen
09.08 - 16.08.2022 889  809 € Expressangebot holen
10.08 - 17.08.2022 889  809 € Expressangebot holen
11.08 - 18.08.2022 889  809 € Expressangebot holen
12.08 - 19.08.2022 889  809 € Expressangebot holen
14.08 - 21.08.2022 889  809 € Expressangebot holen
15.08 - 22.08.2022 889  809 € Expressangebot holen
16.08 - 23.08.2022 889  809 € Expressangebot holen
17.08 - 24.08.2022 889  809 € Expressangebot holen
18.08 - 25.08.2022 889  809 € Expressangebot holen
19.08 - 26.08.2022 889  809 € Expressangebot holen
21.08 - 28.08.2022 889  809 € Expressangebot holen
22.08 - 29.08.2022 879  789 € Expressangebot holen
23.08 - 30.08.2022 859  779 € Expressangebot holen
24.08 - 31.08.2022 839  769 € Expressangebot holen
25.08 - 01.09.2022 829  749 € Expressangebot holen
26.08 - 02.09.2022 809  739 € Expressangebot holen
28.08 - 04.09.2022 779  709 € Expressangebot holen
29.08 - 05.09.2022 779  709 € Expressangebot holen
30.08 - 06.09.2022 779  709 € Expressangebot holen
31.08 - 07.09.2022 779  709 € Expressangebot holen
September
01.09 - 08.09.2022 779  709 € Expressangebot holen
02.09 - 09.09.2022 779  709 € Expressangebot holen
04.09 - 11.09.2022 779  709 € Expressangebot holen
Alle Flugpreise exklusive Transfer, außer bei Goldstrand und Sonnenstrand.
Termin Preis
Preise für 2022
Juni
01.06 - 15.06.2022 1019  919 € nur noch wenige Plätze
02.06 - 16.06.2022 1029  919 € nur noch wenige Plätze
03.06 - 17.06.2022 1039  929 € nur noch wenige Plätze
05.06 - 19.06.2022 1049  939 € nur noch wenige Plätze
06.06 - 20.06.2022 1049  939 € nur noch wenige Plätze
07.06 - 21.06.2022 1059  949 € Expressangebot holen
08.06 - 22.06.2022 1069  959 € Expressangebot holen
09.06 - 23.06.2022 1089  969 € Expressangebot holen
10.06 - 24.06.2022 1109  989 € Expressangebot holen
12.06 - 26.06.2022 1139  1009 € Expressangebot holen
13.06 - 27.06.2022 1149  1029 € Expressangebot holen
14.06 - 28.06.2022 1159  1039 € Expressangebot holen
15.06 - 29.06.2022 1179  1049 € Expressangebot holen
16.06 - 30.06.2022 1189  1059 € Expressangebot holen
17.06 - 01.07.2022 1209  1079 € Expressangebot holen
19.06 - 03.07.2022 1239  1099 € Expressangebot holen
20.06 - 04.07.2022 1249  1109 € Expressangebot holen
21.06 - 05.07.2022 1259  1119 € Expressangebot holen
22.06 - 06.07.2022 1279  1139 € Expressangebot holen
23.06 - 07.07.2022 1279  1139 € Expressangebot holen
24.06 - 08.07.2022 1279  1139 € Expressangebot holen
26.06 - 10.07.2022 1279  1139 € Expressangebot holen
27.06 - 11.07.2022 1279  1139 € Expressangebot holen
28.06 - 12.07.2022 1279  1139 € Expressangebot holen
29.06 - 13.07.2022 1279  1139 € Expressangebot holen
30.06 - 14.07.2022 1279  1139 € Expressangebot holen
Juli
01.07 - 15.07.2022 1279  1139 € Expressangebot holen
03.07 - 17.07.2022 1289  1149 € Expressangebot holen
04.07 - 18.07.2022 1309  1159 € Expressangebot holen
05.07 - 19.07.2022 1319  1169 € Expressangebot holen
06.07 - 20.07.2022 1329  1179 € Expressangebot holen
07.07 - 21.07.2022 1349  1189 € Expressangebot holen
08.07 - 22.07.2022 1359  1199 € Expressangebot holen
10.07 - 24.07.2022 1379  1229 € Expressangebot holen
11.07 - 25.07.2022 1399  1239 € Expressangebot holen
12.07 - 26.07.2022 1409  1249 € Expressangebot holen
13.07 - 27.07.2022 1419  1259 € Expressangebot holen
14.07 - 28.07.2022 1439  1269 € Expressangebot holen
15.07 - 29.07.2022 1449  1279 € Expressangebot holen
17.07 - 31.07.2022 1459  1289 € Expressangebot holen
18.07 - 01.08.2022 1459  1289 € Expressangebot holen
19.07 - 02.08.2022 1459  1289 € Expressangebot holen
20.07 - 03.08.2022 1459  1289 € Expressangebot holen
21.07 - 04.08.2022 1459  1289 € Expressangebot holen
22.07 - 05.08.2022 1459  1289 € Expressangebot holen
24.07 - 07.08.2022 1459  1289 € Expressangebot holen
25.07 - 08.08.2022 1459  1289 € Expressangebot holen
26.07 - 09.08.2022 1459  1289 € Expressangebot holen
27.07 - 10.08.2022 1459  1289 € Expressangebot holen
28.07 - 11.08.2022 1459  1289 € Expressangebot holen
29.07 - 12.08.2022 1459  1289 € Expressangebot holen
31.07 - 14.08.2022 1459  1289 € Expressangebot holen
August
01.08 - 15.08.2022 1459  1289 € Expressangebot holen
02.08 - 16.08.2022 1459  1289 € Expressangebot holen
03.08 - 17.08.2022 1459  1289 € Expressangebot holen
04.08 - 18.08.2022 1459  1289 € Expressangebot holen
05.08 - 19.08.2022 1459  1289 € Expressangebot holen
07.08 - 21.08.2022 1459  1289 € Expressangebot holen
08.08 - 22.08.2022 1459  1289 € Expressangebot holen
09.08 - 23.08.2022 1459  1289 € Expressangebot holen
10.08 - 24.08.2022 1459  1289 € Expressangebot holen
11.08 - 25.08.2022 1459  1289 € Expressangebot holen
12.08 - 26.08.2022 1459  1289 € Expressangebot holen
14.08 - 28.08.2022 1459  1289 € Expressangebot holen
15.08 - 29.08.2022 1449  1279 € Expressangebot holen
16.08 - 30.08.2022 1429  1259 € Expressangebot holen
17.08 - 31.08.2022 1409  1249 € Expressangebot holen
18.08 - 01.09.2022 1399  1239 € Expressangebot holen
19.08 - 02.09.2022 1379  1219 € Expressangebot holen
21.08 - 04.09.2022 1349  1189 € Expressangebot holen
22.08 - 05.09.2022 1329  1179 € Expressangebot holen
23.08 - 06.09.2022 1309  1159 € Expressangebot holen
24.08 - 07.09.2022 1299  1149 € Expressangebot holen
25.08 - 08.09.2022 1279  1139 € Expressangebot holen
26.08 - 09.09.2022 1259  1119 € Expressangebot holen
28.08 - 11.09.2022 1229  1089 € Expressangebot holen
Alle Flugpreise exklusive Transfer, außer bei Goldstrand und Sonnenstrand.
Erlebe einen super Urlaub mit FUN-ABI ab 489,00 € und 1.289,00 €.